Time;durP1;ratioP1;P1;durP2;ratioP2;P2;SDS_P1;SDS_P2;PMS_P1;PMS_P2;Temp;Humidity;BMP_temperature;BMP_pressure;BME280_temperature;BME280_humidity;BME280_pressure;Samples;Min_cycle;Max_cycle;Signal;HPM_P1;HPM_P2
2021/10/15 00:00:36;;;;;;;11.80;7.93;;;;;;;4.44;73.44;100332.98;1737311;79;21058;-56
2021/10/15 00:03:03;;;;;;;12.37;9.07;;;;;;;4.42;73.23;100336.11;1738838;79;21089;-54
2021/10/15 00:05:30;;;;;;;11.57;8.30;;;;;;;4.38;73.08;100331.74;1738192;79;22585;-55
2021/10/15 00:07:56;;;;;;;12.63;8.80;;;;;;;4.34;73.01;100331.34;1738941;79;21496;-56
2021/10/15 00:10:23;;;;;;;10.30;7.87;;;;;;;4.28;72.91;100335.44;1701011;81;21385;-55
2021/10/15 00:12:49;;;;;;;13.70;9.53;;;;;;;4.21;72.71;100325.77;1738500;79;21035;-55
2021/10/15 00:15:17;;;;;;;15.83;8.63;;;;;;;4.13;72.65;100331.64;1737656;79;21109;-55
2021/10/15 00:17:43;;;;;;;14.00;9.20;;;;;;;4.06;72.65;100325.97;1739040;79;20888;-55
2021/10/15 00:20:13;;;;;;;14.07;10.50;;;;;;;3.99;72.56;100335.83;1743507;79;21036;-54
2021/10/15 00:22:39;;;;;;;11.70;8.83;;;;;;;3.92;72.52;100329.23;1738954;79;21102;-55
2021/10/15 00:25:07;;;;;;;13.30;7.77;;;;;;;3.84;72.59;100322.67;1740370;79;20918;-55
2021/10/15 00:27:33;;;;;;;10.53;7.40;;;;;;;3.79;72.64;100326.73;1739202;79;21381;-56
2021/10/15 00:29:59;;;;;;;10.37;7.20;;;;;;;3.76;72.66;100325.88;1740508;79;20880;-56
2021/10/15 00:32:26;;;;;;;13.03;7.90;;;;;;;3.72;72.62;100321.05;1740920;79;20937;-53
2021/10/15 00:34:52;;;;;;;15.03;8.87;;;;;;;3.69;72.56;100323.74;1738755;79;21089;-56
2021/10/15 00:37:19;;;;;;;13.20;7.30;;;;;;;3.66;72.52;100322.44;1739418;79;21007;-56
2021/10/15 00:39:46;;;;;;;11.27;7.77;;;;;;;3.64;72.48;100319.38;1741691;79;20919;-56
2021/10/15 00:42:12;;;;;;;13.60;8.37;;;;;;;3.60;72.43;100315.86;1739942;79;20985;-56
2021/10/15 00:44:40;;;;;;;15.23;9.03;;;;;;;3.57;72.33;100326.56;1738684;79;20987;-56
2021/10/15 00:47:06;;;;;;;10.33;7.87;;;;;;;3.53;72.31;100323.93;1739103;79;21096;-56
2021/10/15 00:49:32;;;;;;;14.03;9.50;;;;;;;3.48;72.33;100325.33;1741472;79;20971;-55
2021/10/15 00:52:00;;;;;;;12.60;8.87;;;;;;;3.40;72.40;100321.38;1743976;79;20895;-56
2021/10/15 00:54:26;;;;;;;10.97;8.30;;;;;;;3.35;72.53;100321.89;1741493;79;21009;-55
2021/10/15 00:56:53;;;;;;;12.57;8.93;;;;;;;3.31;72.64;100321.95;1738824;79;20939;-55
2021/10/15 00:59:19;;;;;;;11.47;8.23;;;;;;;3.26;72.69;100322.42;1708472;81;22161;-57
2021/10/15 01:01:45;;;;;;;15.23;8.57;;;;;;;3.23;72.53;100318.48;1741026;79;21296;-56
2021/10/15 01:04:13;;;;;;;11.60;8.07;;;;;;;3.18;72.74;100322.50;1736881;79;21493;-55
2021/10/15 01:06:39;;;;;;;13.23;7.67;;;;;;;3.15;72.90;100314.53;1736355;79;21033;-56
2021/10/15 01:09:06;;;;;;;10.27;7.23;;;;;;;3.13;72.98;100319.02;1736378;79;21057;-57
2021/10/15 01:11:33;;;;;;;11.40;7.80;;;;;;;3.11;73.07;100319.91;1737555;79;23180;-56
2021/10/15 01:13:59;;;;;;;13.03;7.37;;;;;;;3.10;73.14;100315.48;1740169;80;21113;-57
2021/10/15 01:16:30;;;;;;;11.60;7.63;;;;;;;3.09;73.11;100317.27;1741655;80;21872;-57
2021/10/15 01:18:58;;;;;;;15.83;9.97;;;;;;;3.09;73.13;100316.38;1738207;79;21116;-57
2021/10/15 01:21:25;;;;;;;13.07;9.13;;;;;;;3.08;73.17;100318.16;1739124;79;21018;-57
2021/10/15 01:23:51;;;;;;;12.77;8.80;;;;;;;3.08;73.12;100318.60;1738490;80;22473;-57
2021/10/15 01:26:17;;;;;;;18.67;10.53;;;;;;;3.05;73.11;100316.88;1735533;79;21050;-57
2021/10/15 01:28:43;;;;;;;14.30;9.40;;;;;;;3.02;73.11;100320.44;1732597;80;21092;-56
2021/10/15 01:31:10;;;;;;;15.10;10.17;;;;;;;2.94;73.17;100310.76;1740161;80;21133;-56
2021/10/15 01:33:37;;;;;;;10.80;8.40;;;;;;;2.88;73.17;100310.82;1734957;80;21077;-57
2021/10/15 01:36:04;;;;;;;11.67;7.93;;;;;;;2.84;73.23;100314.38;1735145;79;22766;-56
2021/10/15 01:38:31;;;;;;;14.33;8.33;;;;;;;2.81;73.41;100310.41;1735426;80;20970;-56
2021/10/15 01:40:57;;;;;;;9.10;6.63;;;;;;;2.80;73.43;100311.33;1736039;79;21061;-57
2021/10/15 01:43:27;;;;;;;13.77;8.13;;;;;;;2.80;73.51;100314.87;1733615;80;21102;-56
2021/10/15 01:45:54;;;;;;;10.67;7.67;;;;;;;2.82;73.53;100313.06;1741959;79;20892;-56
2021/10/15 01:48:20;;;;;;;12.40;8.67;;;;;;;2.83;73.48;100310.84;1739100;80;21113;-56
2021/10/15 01:50:47;;;;;;;13.33;9.67;;;;;;;2.85;73.48;100316.15;1741628;80;21082;-57
2021/10/15 01:53:14;;;;;;;25.17;11.97;;;;;;;2.85;73.62;100314.38;1736968;79;21034;-58
2021/10/15 01:55:41;;;;;;;23.87;13.33;;;;;;;2.87;74.02;100321.02;1736049;80;21106;-57
2021/10/15 01:58:07;;;;;;;19.43;13.17;;;;;;;2.89;74.47;100325.88;1736533;80;21652;-57
2021/10/15 02:00:34;;;;;;;20.60;13.10;;;;;;;2.92;74.95;100320.52;1734311;80;21171;-58
2021/10/15 02:03:00;;;;;;;22.83;12.43;;;;;;;2.95;75.29;100318.73;1736861;79;21122;-58
2021/10/15 02:05:27;;;;;;;20.97;13.57;;;;;;;3.00;75.58;100318.23;1733735;79;21098;-57
2021/10/15 02:07:53;;;;;;;19.07;11.87;;;;;;;3.05;75.92;100314.22;1735655;79;21125;-57
2021/10/15 02:10:21;;;;;;;20.43;11.97;;;;;;;3.11;76.25;100314.15;1738505;80;21058;-57
2021/10/15 02:12:50;;;;;;;20.30;11.87;;;;;;;3.17;76.45;100316.74;1740179;80;21822;-57
2021/10/15 02:15:18;;;;;;;20.07;13.23;;;;;;;3.24;76.61;100317.56;1738412;80;21066;-56
2021/10/15 02:17:46;;;;;;;20.00;11.77;;;;;;;3.32;76.69;100315.70;1739554;80;20923;-57
2021/10/15 02:20:14;;;;;;;21.40;13.77;;;;;;;3.36;76.79;100311.69;1740779;80;20939;-58
2021/10/15 02:22:45;;;;;;;20.83;13.53;;;;;;;3.41;76.83;100314.28;1738149;79;21513;-57
2021/10/15 02:25:13;;;;;;;17.17;11.53;;;;;;;3.45;76.86;100320.02;1682558;83;21142;-56
2021/10/15 02:27:40;;;;;;;18.43;11.70;;;;;;;3.49;76.73;100321.73;1740006;79;21420;-56
2021/10/15 02:30:07;;;;;;;19.13;12.27;;;;;;;3.49;76.41;100315.08;1735089;79;21089;-57
2021/10/15 02:32:34;;;;;;;17.57;11.70;;;;;;;3.48;76.21;100316.01;1739277;79;21056;-56
2021/10/15 02:35:01;;;;;;;19.53;13.13;;;;;;;3.46;75.97;100315.14;1740908;79;20915;-57
2021/10/15 02:37:27;;;;;;;17.77;12.63;;;;;;;3.41;75.69;100314.28;1738693;79;21857;-57
2021/10/15 02:39:53;;;;;;;17.07;12.20;;;;;;;3.35;75.62;100313.91;1735058;79;21033;-56
2021/10/15 02:42:19;;;;;;;16.87;11.60;;;;;;;3.34;75.66;100305.48;1737069;79;21489;-57
2021/10/15 02:44:46;;;;;;;18.27;12.37;;;;;;;3.34;75.70;100312.14;1679717;83;21657;-55
2021/10/15 02:47:12;;;;;;;17.50;11.80;;;;;;;3.35;75.73;100308.59;1685219;82;22625;-56
2021/10/15 02:49:40;;;;;;;21.83;12.33;;;;;;;3.36;75.79;100306.81;1684968;83;22790;-55
2021/10/15 02:52:06;;;;;;;17.87;11.90;;;;;;;3.39;75.91;100306.34;1740356;79;21367;-57
2021/10/15 02:54:33;;;;;;;19.27;12.40;;;;;;;3.41;75.98;100311.17;1733602;79;21341;-56
2021/10/15 02:56:59;;;;;;;22.60;12.33;;;;;;;3.45;75.98;100312.48;1735499;79;21332;-56
2021/10/15 02:59:26;;;;;;;21.03;12.93;;;;;;;3.46;76.02;100308.48;1736264;79;21416;-58
2021/10/15 03:01:52;;;;;;;20.83;14.20;;;;;;;3.48;75.74;100309.80;1736380;79;21021;-57
2021/10/15 03:04:18;;;;;;;23.27;15.30;;;;;;;3.46;75.77;100297.84;1739396;80;21086;-57
2021/10/15 03:06:45;;;;;;;24.20;14.00;;;;;;;3.46;75.85;100304.94;1735445;80;21540;-57
2021/10/15 03:09:11;;;;;;;22.60;15.47;;;;;;;3.44;75.94;100306.28;1735493;80;21915;-56
2021/10/15 03:11:38;;;;;;;23.13;13.83;;;;;;;3.43;75.96;100297.41;1734406;79;21836;-57
2021/10/15 03:14:04;;;;;;;23.13;14.47;;;;;;;3.43;75.98;100305.39;1738315;79;21705;-57
2021/10/15 03:16:30;;;;;;;20.57;13.00;;;;;;;3.43;76.04;100306.72;1737437;79;21050;-57
2021/10/15 03:18:57;;;;;;;20.23;12.20;;;;;;;3.44;76.13;100300.95;1741859;79;21089;-56
2021/10/15 03:21:23;;;;;;;19.67;12.20;;;;;;;3.47;76.17;100306.70;1732303;79;21117;-57
2021/10/15 03:23:51;;;;;;;22.80;13.83;;;;;;;3.49;76.19;100310.23;1741008;79;21070;-57
2021/10/15 03:26:17;;;;;;;20.83;13.27;;;;;;;3.51;76.26;100301.77;1738533;79;22202;-56
2021/10/15 03:28:43;;;;;;;20.63;14.10;;;;;;;3.53;76.34;100304.84;1729880;79;20938;-57
2021/10/15 03:31:09;;;;;;;19.60;13.47;;;;;;;3.54;76.32;100301.74;1730381;79;21353;-56
2021/10/15 03:33:37;;;;;;;21.77;13.67;;;;;;;3.56;76.31;100304.83;1730886;79;21705;-56
2021/10/15 03:36:04;;;;;;;22.90;14.33;;;;;;;3.56;76.21;100302.17;1731774;79;21518;-57
2021/10/15 03:38:30;;;;;;;23.83;15.20;;;;;;;3.55;76.23;100297.73;1730595;79;21085;-56
2021/10/15 03:40:56;;;;;;;20.97;15.70;;;;;;;3.55;76.24;100294.19;1731377;79;20890;-57
2021/10/15 03:43:23;;;;;;;18.60;13.60;;;;;;;3.54;76.09;100294.64;1731284;79;20994;-55
2021/10/15 03:45:49;;;;;;;23.57;15.10;;;;;;;3.50;76.01;100294.23;1730806;79;21037;-55
2021/10/15 03:48:15;;;;;;;19.03;12.23;;;;;;;3.48;75.90;100316.01;1729929;79;21061;-56
2021/10/15 03:50:41;;;;;;;19.70;12.67;;;;;;;3.47;75.82;100308.92;1727905;79;22582;-56
2021/10/15 03:53:08;;;;;;;25.03;15.90;;;;;;;3.47;75.74;100315.58;1728959;79;21764;-57
2021/10/15 03:55:35;;;;;;;18.53;11.70;;;;;;;3.45;75.75;100310.70;1727892;79;21068;-55
2021/10/15 03:58:01;;;;;;;34.83;20.50;;;;;;;3.46;75.69;100315.14;1728652;79;21183;-58
2021/10/15 04:00:28;;;;;;;34.87;22.80;;;;;;;3.46;75.41;100312.47;1705870;79;21447;-57
2021/10/15 04:02:54;;;;;;;28.07;19.20;;;;;;;3.44;75.49;100310.27;1726899;79;21119;-57
2021/10/15 04:05:21;;;;;;;31.10;19.70;;;;;;;3.44;75.63;100306.28;1723375;79;21072;-56
2021/10/15 04:07:47;;;;;;;32.27;20.13;;;;;;;3.45;75.71;100309.38;1723881;79;21096;-56
2021/10/15 04:10:13;;;;;;;29.23;19.17;;;;;;;3.45;75.68;100318.69;1726814;79;21041;-57
2021/10/15 04:12:39;;;;;;;32.27;19.37;;;;;;;3.46;75.63;100317.80;1725629;79;21050;-57
2021/10/15 04:15:08;;;;;;;30.40;18.73;;;;;;;3.44;75.69;100314.27;1724778;79;23184;-57
2021/10/15 04:17:34;;;;;;;27.20;17.93;;;;;;;3.44;75.78;100315.59;1728576;79;20933;-57
2021/10/15 04:20:01;;;;;;;24.60;14.73;;;;;;;3.45;75.94;100324.02;1729017;79;21080;-58
2021/10/15 04:22:27;;;;;;;20.43;13.30;;;;;;;3.49;76.08;100320.89;1728001;79;21081;-57
2021/10/15 04:24:53;;;;;;;22.40;14.37;;;;;;;3.51;76.21;100322.61;1727789;79;21057;-56
2021/10/15 04:27:20;;;;;;;22.33;14.00;;;;;;;3.55;76.41;100318.15;1728463;79;21078;-57
2021/10/15 04:29:46;;;;;;;20.57;13.97;;;;;;;3.61;76.52;100322.06;1718235;81;21345;-56
2021/10/15 04:32:14;;;;;;;25.37;16.17;;;;;;;3.66;76.64;100315.78;1721525;81;21049;-57
2021/10/15 04:34:41;;;;;;;22.30;14.83;;;;;;;3.70;76.74;100314.86;1716088;81;21129;-56
2021/10/15 04:37:07;;;;;;;21.53;14.33;;;;;;;3.77;76.77;100313.88;1715590;81;21144;-57
2021/10/15 04:39:33;;;;;;;23.57;16.80;;;;;;;3.82;76.80;100313.84;1715707;81;21169;-57
2021/10/15 04:42:00;;;;;;;29.23;17.43;;;;;;;3.86;76.83;100304.02;1718213;81;21045;-56
2021/10/15 04:44:26;;;;;;;24.37;17.17;;;;;;;3.89;76.87;100314.20;1713661;81;22386;-57
2021/10/15 04:46:52;;;;;;;25.00;16.40;;;;;;;3.92;76.89;100313.25;1712174;81;22037;-57
2021/10/15 04:49:18;;;;;;;24.43;16.70;;;;;;;3.94;76.94;100318.13;1717775;81;21551;-57
2021/10/15 04:51:45;;;;;;;23.10;15.73;;;;;;;3.97;76.96;100320.76;1715179;81;21799;-56
2021/10/15 04:54:11;;;;;;;21.23;14.00;;;;;;;4.00;76.94;100318.92;1714410;81;21527;-56
2021/10/15 04:56:39;;;;;;;19.70;13.80;;;;;;;4.05;76.95;100321.54;1713091;81;21574;-54
2021/10/15 04:59:05;;;;;;;19.13;12.53;;;;;;;4.08;76.93;100322.36;1714313;81;21596;-56
2021/10/15 05:01:33;;;;;;;22.40;14.63;;;;;;;4.12;76.97;100322.77;1713915;81;21783;-55
2021/10/15 05:03:59;;;;;;;20.77;14.07;;;;;;;4.16;76.97;100316.52;1712455;81;21510;-57
2021/10/15 05:06:25;;;;;;;24.17;14.93;;;;;;;4.19;76.96;100323.11;1713695;81;21574;-56
2021/10/15 05:09:13;;;;;;;21.87;15.77;;;;;;;4.22;76.93;100326.20;1718015;81;22565;-56
2021/10/15 05:11:31;;;;;;;25.70;15.67;;;;;;;4.26;76.90;100321.69;1711432;81;21392;-57
2021/10/15 05:13:57;;;;;;;24.50;17.00;;;;;;;4.27;76.86;100329.67;1715234;81;21737;-56
2021/10/15 05:16:23;;;;;;;24.47;17.10;;;;;;;4.29;76.84;100322.55;1713387;81;21117;-56
2021/10/15 05:18:50;;;;;;;21.80;15.83;;;;;;;4.31;76.81;100326.08;1710987;81;21089;-56
2021/10/15 05:21:18;;;;;;;22.23;14.63;;;;;;;4.34;76.76;100318.50;1711190;81;21129;-56
2021/10/15 05:23:44;;;;;;;23.43;14.53;;;;;;;4.37;76.70;100321.98;1712337;81;21132;-56
2021/10/15 05:26:10;;;;;;;21.07;13.43;;;;;;;4.40;76.70;100325.06;1714962;81;21050;-56
2021/10/15 05:28:37;;;;;;;22.13;13.53;;;;;;;4.43;76.73;100324.55;1732204;80;22103;-57
2021/10/15 05:31:03;;;;;;;18.93;14.43;;;;;;;4.49;76.75;100324.48;1697848;82;21644;-56
2021/10/15 05:36:08;;;;;;;21.07;15.43;;;;;;;4.65;76.72;100329.59;1859719;75;26746;-56
2021/10/15 05:38:34;;;;;;;24.07;16.73;;;;;;;4.67;76.63;100335.78;1837988;75;21158;-56
2021/10/15 05:41:00;;;;;;;25.07;16.03;;;;;;;4.72;76.62;100336.58;1841641;75;21573;-57
2021/10/15 05:43:26;;;;;;;23.40;16.03;;;;;;;4.78;76.63;100340.48;1840635;75;21009;-57
2021/10/15 05:45:53;;;;;;;23.97;16.33;;;;;;;4.84;76.60;100335.08;1839265;75;21001;-57
2021/10/15 05:48:19;;;;;;;23.43;15.90;;;;;;;4.89;76.52;100336.75;1841286;75;21029;-57
2021/10/15 05:50:45;;;;;;;19.20;13.83;;;;;;;4.94;76.47;100325.98;1838896;75;21065;-58
2021/10/15 05:53:16;;;;;;;20.97;14.53;;;;;;;5.00;76.39;100335.25;1844251;75;21093;-56
2021/10/15 06:01:11;;;;;;;19.67;14.07;;;;;;;5.17;76.05;100337.19;1737892;80;21077;-57
2021/10/15 06:03:41;;;;;;;19.03;14.60;;;;;;;5.22;75.98;100337.97;1791047;75;20902;-57
2021/10/15 06:14:25;;;;;;;29.10;17.67;;;;;;;5.46;75.57;100343.33;1842921;75;20927;-57
2021/10/15 06:16:55;;;;;;;29.10;19.07;;;;;;;5.51;75.43;100340.14;1846177;75;21493;-57
2021/10/15 06:19:25;;;;;;;28.40;18.20;;;;;;;5.56;75.37;100346.27;1815338;75;21131;-56
2021/10/15 06:21:49;;;;;;;30.23;17.00;;;;;;;5.64;75.17;100340.77;1837570;75;21300;-57
2021/10/15 06:24:16;;;;;;;25.83;14.80;;;;;;;5.67;75.00;100338.05;1840636;75;21480;-57
2021/10/15 06:26:43;;;;;;;24.10;13.20;;;;;;;5.72;74.87;100340.17;1843689;75;21954;-57
2021/10/15 06:29:09;;;;;;;18.83;12.47;;;;;;;5.77;74.69;100337.42;1843335;75;21395;-56
2021/10/15 06:31:36;;;;;;;19.53;12.17;;;;;;;5.83;74.50;100339.97;1845553;75;20962;-56
2021/10/15 06:34:02;;;;;;;22.47;14.17;;;;;;;5.90;74.39;100339.84;1846267;75;21402;-56
2021/10/15 06:36:29;;;;;;;19.63;13.50;;;;;;;5.99;74.37;100335.66;1845301;75;21502;-56
2021/10/15 06:38:55;;;;;;;21.43;13.57;;;;;;;6.11;74.33;100334.98;1846880;75;21050;-57
2021/10/15 06:42:12;;;;;;;19.40;13.00;;;;;;;6.30;74.23;100333.20;1868697;74;23309;-57
2021/10/15 06:44:38;;;;;;;19.67;14.10;;;;;;;6.39;74.03;100338.81;1841979;76;21063;-55
2021/10/15 06:47:05;;;;;;;22.30;12.17;;;;;;;6.50;73.65;100335.91;1840691;75;23363;-55
2021/10/15 06:49:32;;;;;;;17.63;10.97;;;;;;;6.60;73.35;100331.66;1841613;75;21016;-56
2021/10/15 06:51:58;;;;;;;17.67;11.93;;;;;;;6.72;73.13;100327.34;1844820;76;21016;-54
2021/10/15 06:54:25;;;;;;;17.63;11.20;;;;;;;6.84;72.81;100330.20;1843898;76;20954;-56
2021/10/15 06:56:52;;;;;;;16.37;11.23;;;;;;;6.95;72.54;100329.49;1842028;76;20981;-56
2021/10/15 06:59:19;;;;;;;17.57;12.10;;;;;;;7.06;72.21;100327.41;1838107;76;21051;-55
2021/10/15 07:01:46;;;;;;;14.80;10.67;;;;;;;7.17;71.92;100324.47;1841858;76;20914;-56
2021/10/15 07:04:12;;;;;;;16.13;11.67;;;;;;;7.28;71.69;100323.75;1840496;76;21059;-57
2021/10/15 07:06:39;;;;;;;17.50;12.73;;;;;;;7.40;71.07;100323.91;1839984;76;21098;-56
2021/10/15 07:09:05;;;;;;;19.17;11.93;;;;;;;7.49;70.68;100323.17;1836168;76;21105;-55
2021/10/15 07:11:37;;;;;;;19.77;12.17;;;;;;;7.59;70.32;100319.79;1837723;75;21111;-58
2021/10/15 07:14:01;;;;;;;16.13;10.97;;;;;;;7.69;69.92;100326.66;1839326;75;21094;-58
2021/10/15 07:16:29;;;;;;;16.50;10.77;;;;;;;7.80;69.64;100325.91;1841645;76;20985;-55
2021/10/15 07:18:55;;;;;;;15.50;11.30;;;;;;;7.91;69.53;100322.45;1837167;75;21986;-55
2021/10/15 07:21:22;;;;;;;18.60;11.70;;;;;;;8.03;69.15;100319.89;1839885;76;21655;-56
2021/10/15 07:23:48;;;;;;;18.83;11.07;;;;;;;8.16;69.00;100318.63;1842795;76;21118;-55
2021/10/15 07:26:14;;;;;;;11.70;9.70;;;;;;;8.30;68.59;100319.55;1839196;76;21052;-56
2021/10/15 07:28:40;;;;;;;15.67;9.83;;;;;;;8.43;68.08;100320.95;1833164;75;21036;-55
2021/10/15 07:31:07;;;;;;;14.53;11.55;;;;;;;8.54;67.72;100314.80;1842227;76;21008;-55
2021/10/15 07:33:33;;;;;;;19.10;11.55;;;;;;;8.65;67.14;100318.04;1839979;76;21557;-57
2021/10/15 07:35:59;;;;;;;14.38;10.90;;;;;;;8.76;66.73;100312.34;1843053;76;21120;-56
2021/10/15 07:38:26;;;;;;;15.20;10.13;;;;;;;8.84;66.17;100307.60;1783344;78;21076;-55
2021/10/15 07:40:52;;;;;;;24.43;11.55;;;;;;;8.94;65.71;100310.38;1779563;78;21911;-54
2021/10/15 07:43:18;;;;;;;13.58;9.95;;;;;;;9.03;65.48;100309.20;1776935;78;21665;-56
2021/10/15 07:45:45;;;;;;;12.95;10.13;;;;;;;9.12;65.23;100307.55;1777440;79;21103;-55
2021/10/15 07:48:11;;;;;;;16.93;10.38;;;;;;;9.22;65.02;100310.81;1803461;77;21087;-55
2021/10/15 07:50:38;;;;;;;14.15;10.48;;;;;;;9.31;64.56;100307.81;1805270;78;21044;-57
2021/10/15 07:53:04;;;;;;;14.13;11.10;;;;;;;9.39;64.25;100299.91;1804542;77;21484;-56
2021/10/15 07:55:30;;;;;;;14.00;9.15;;;;;;;9.46;63.64;100305.93;1801985;78;21700;-57
2021/10/15 07:57:56;;;;;;;14.10;9.23;;;;;;;9.54;63.56;100302.51;1801836;78;20999;-56
2021/10/15 08:00:23;;;;;;;9.60;8.45;;;;;;;9.62;63.28;100308.95;1755505;78;21475;-56
2021/10/15 08:02:50;;;;;;;14.05;10.65;;;;;;;9.69;63.01;100303.33;1755291;78;21060;-56
2021/10/15 08:05:17;;;;;;;10.10;8.30;;;;;;;9.79;62.96;100301.16;1788985;79;20925;-55
2021/10/15 08:07:44;;;;;;;11.50;7.92;;;;;;;9.90;62.50;100299.44;1787462;78;20964;-55
2021/10/15 08:10:12;;;;;;;8.00;6.75;;;;;;;9.99;62.21;100297.75;1784823;78;20976;-57
2021/10/15 08:12:40;;;;;;;9.50;6.05;;;;;;;10.08;61.28;100296.94;1788705;78;21065;-57
2021/10/15 08:15:09;;;;;;;7.78;7.00;;;;;;;10.18;60.90;100296.17;1782114;78;21049;-57
2021/10/15 08:17:37;;;;;;;10.98;8.05;;;;;;;10.28;60.50;100296.70;1786189;78;21582;-58
2021/10/15 08:20:05;;;;;;;8.08;6.78;;;;;;;10.37;60.11;100294.53;1782069;78;21024;-57
2021/10/15 08:22:33;;;;;;;9.93;8.33;;;;;;;10.43;59.45;100292.94;1785235;78;21098;-57
2021/10/15 08:24:59;;;;;;;8.80;6.97;;;;;;;10.51;59.47;100290.83;1781532;78;21088;-57
2021/10/15 08:27:25;;;;;;;7.50;6.75;;;;;;;10.59;59.38;100289.17;1788022;78;21088;-55
2021/10/15 08:29:51;;;;;;;9.90;7.83;;;;;;;10.68;58.72;100292.84;1786355;78;20923;-55
2021/10/15 08:32:18;;;;;;;8.53;7.37;;;;;;;10.75;57.94;100280.00;1784672;78;20950;-55
2021/10/15 08:34:44;;;;;;;9.50;7.60;;;;;;;10.82;57.81;100284.20;1785443;78;21069;-56
2021/10/15 08:37:10;;;;;;;9.65;7.05;;;;;;;10.88;57.87;100277.23;1787299;78;21060;-55
2021/10/15 08:39:36;;;;;;;6.67;6.07;;;;;;;10.95;57.52;100277.39;1785550;78;21045;-55
2021/10/15 08:42:04;;;;;;;8.68;7.00;;;;;;;11.03;56.97;100275.25;1765214;79;21089;-56
2021/10/15 08:44:39;;;;;;;9.43;6.08;;;;;;;11.10;56.83;100273.16;1760218;79;20977;-56
2021/10/15 08:47:06;;;;;;;12.80;6.85;;;;;;;11.17;56.65;100262.53;1755507;79;21733;-57
2021/10/15 08:49:34;;;;;;;6.92;5.83;;;;;;;11.26;56.47;100267.53;1757389;80;22501;-55
2021/10/15 08:52:00;;;;;;;8.15;5.17;;;;;;;11.34;56.30;100268.95;1757519;79;21064;-55
2021/10/15 08:54:28;;;;;;;6.62;5.70;;;;;;;11.43;55.70;100266.80;1758182;79;21002;-57
2021/10/15 08:56:57;;;;;;;6.72;5.62;;;;;;;11.50;54.94;100262.88;1755216;79;21069;-57
2021/10/15 08:59:39;;;;;;;5.97;5.35;;;;;;;11.53;54.72;100265.46;1758221;79;21349;-56
2021/10/15 09:02:13;;;;;;;5.75;5.17;;;;;;;11.58;54.72;100255.33;1756466;79;21133;-56
2021/10/15 09:04:46;;;;;;;4.72;4.12;;;;;;;11.63;53.88;100258.25;1761138;79;21107;-57
2021/10/15 09:07:14;;;;;;;6.85;5.33;;;;;;;11.71;53.55;100253.86;1760124;80;21486;-56
2021/10/15 09:09:41;;;;;;;8.80;5.20;;;;;;;11.77;53.25;100248.22;1762762;79;21480;-55
2021/10/15 09:12:11;;;;;;;4.37;3.42;;;;;;;11.84;52.79;100247.45;1762282;79;21435;-55
2021/10/15 09:14:39;;;;;;;5.17;3.50;;;;;;;11.89;52.47;100249.02;1761875;79;21080;-53
2021/10/15 09:17:21;;;;;;;4.75;3.58;;;;;;;11.94;51.66;100248.33;1759087;79;20930;-56
2021/10/15 09:19:50;;;;;;;7.70;3.85;;;;;;;11.99;51.20;100243.58;1761745;79;21801;-56
2021/10/15 09:22:25;;;;;;;4.28;3.35;;;;;;;12.04;51.05;100242.91;1759874;79;21542;-56
2021/10/15 09:25:08;;;;;;;3.55;2.47;;;;;;;12.09;50.62;100241.33;1763141;80;20914;-56
2021/10/15 09:27:38;;;;;;;3.72;2.72;;;;;;;12.14;50.44;100236.61;1763070;79;21080;-56
2021/10/15 09:30:09;;;;;;;4.58;2.72;;;;;;;12.20;50.66;100241.72;1760786;79;20940;-55
2021/10/15 09:32:44;;;;;;;2.55;2.00;;;;;;;12.27;50.34;100235.55;1758658;79;21523;-55
2021/10/15 09:35:12;;;;;;;3.80;3.42;;;;;;;12.35;49.97;100246.85;1763814;79;20893;-55
2021/10/15 09:37:43;;;;;;;4.00;1.65;;;;;;;12.40;49.19;100245.70;1759193;79;20918;-56
2021/10/15 09:40:18;;;;;;;1.45;1.12;;;;;;;12.41;48.50;100230.39;1759272;80;21506;-56
2021/10/15 09:42:50;;;;;;;1.70;1.10;;;;;;;12.45;48.14;100231.50;1775351;78;20953;-56
2021/10/15 09:45:22;;;;;;;4.83;2.00;;;;;;;12.49;47.65;100219.62;1778281;78;21577;-56
2021/10/15 09:47:55;;;;;;;3.25;1.30;;;;;;;12.53;47.64;100217.63;1776371;78;21015;-57
2021/10/15 09:50:24;;;;;;;5.12;1.20;;;;;;;12.55;47.55;100213.03;1779689;78;20893;-56
2021/10/15 09:52:55;;;;;;;4.10;1.47;;;;;;;12.58;47.27;100204.79;1783445;78;21083;-57
2021/10/15 09:55:35;;;;;;;4.90;1.92;;;;;;;12.63;47.09;100205.42;1787451;78;21107;-56
2021/10/15 09:58:17;;;;;;;6.47;1.60;;;;;;;12.67;47.30;100202.98;1785349;78;21423;-56
2021/10/15 10:00:48;;;;;;;4.05;1.40;;;;;;;12.74;46.91;100205.78;1783903;78;21511;-56
2021/10/15 10:03:15;;;;;;;3.45;2.10;;;;;;;12.78;46.58;100206.00;1779535;78;21067;-55
2021/10/15 10:05:42;;;;;;;4.97;2.08;;;;;;;12.81;46.30;100198.23;1782984;78;21138;-57
2021/10/15 10:08:10;;;;;;;3.02;1.60;;;;;;;12.83;46.18;100200.39;1776468;78;21021;-56
2021/10/15 10:10:39;;;;;;;5.20;1.82;;;;;;;12.90;46.28;100196.42;1774522;78;21361;-56
2021/10/15 10:13:09;;;;;;;2.72;2.33;;;;;;;12.90;46.28;100196.42;1775963;78;21064;-56
2021/10/15 10:15:40;;;;;;;2.70;1.55;;;;;;;12.93;46.09;100187.30;1775527;78;20995;-58
2021/10/15 10:21:18;;;;;;;2.95;1.85;;;;;;;12.99;46.11;100182.92;1779147;78;21066;-57
2021/10/15 10:24:15;;;;;;;2.58;1.70;;;;;;;12.99;46.11;100182.92;1768084;79;21502;-56
2021/10/15 10:26:51;;;;;;;2.05;1.20;;;;;;;13.02;45.74;100181.39;1764731;79;21132;-57
2021/10/15 10:29:18;;;;;;;3.50;1.30;;;;;;;13.03;45.72;100178.61;1783226;78;21123;-57
2021/10/15 10:31:44;;;;;;;1.98;1.60;;;;;;;13.04;45.72;100171.38;1779780;78;21052;-56
2021/10/15 10:34:16;;;;;;;3.27;1.65;;;;;;;13.06;45.39;100170.36;1775666;78;21503;-58
2021/10/15 10:36:42;;;;;;;5.67;1.30;;;;;;;13.08;45.29;100170.28;1762336;79;21038;-58
2021/10/15 10:39:23;;;;;;;1.72;1.20;;;;;;;13.07;45.15;100159.08;1753722;79;21088;-56
2021/10/15 10:42:14;;;;;;;2.10;1.10;;;;;;;13.07;45.00;100163.13;1774388;79;21077;-56
2021/10/15 10:44:57;;;;;;;1.50;1.10;;;;;;;13.06;44.74;100165.43;1799952;79;21148;-55
2021/10/15 10:47:25;;;;;;;1.20;1.02;;;;;;;13.05;44.36;100155.09;1779837;79;21033;-56
2021/10/15 10:50:09;;;;;;;2.40;1.20;;;;;;;13.05;44.36;100155.09;1780588;79;21012;-53
2021/10/15 10:52:42;;;;;;;2.95;1.00;;;;;;;13.06;44.06;100158.20;1782399;79;21002;-55
2021/10/15 10:55:08;;;;;;;1.92;1.45;;;;;;;13.09;43.93;100162.58;1803170;78;21049;-57
2021/10/15 10:57:40;;;;;;;3.02;1.27;;;;;;;13.11;43.87;100146.66;1758348;78;21580;-58
2021/10/15 11:00:22;;;;;;;8.50;1.10;;;;;;;13.11;43.74;100153.41;1798664;78;21050;-56
2021/10/15 11:02:54;;;;;;;1.70;1.40;;;;;;;13.14;43.92;100152.42;1775488;79;21038;-55
2021/10/15 11:05:36;;;;;;;3.37;1.02;;;;;;;13.16;44.04;100151.88;1772594;79;20966;-54
2021/10/15 11:08:26;;;;;;;1.70;1.10;;;;;;;13.20;43.70;100146.21;1787772;79;20934;-55
2021/10/15 11:11:26;;;;;;;1.87;1.40;;;;;;;13.24;43.93;100148.29;1702354;80;21160;-56
2021/10/15 11:13:53;;;;;;;2.58;1.30;;;;;;;13.27;43.62;100135.94;1780788;79;21676;-55
2021/10/15 11:16:24;;;;;;;3.10;1.30;;;;;;;13.29;43.45;100151.61;1771454;79;21404;-55
2021/10/15 11:18:51;;;;;;;1.42;1.20;;;;;;;13.29;43.32;100134.03;1771898;80;21068;-56
2021/10/15 11:21:20;;;;;;;1.30;1.02;;;;;;;13.29;43.05;100138.56;1771122;78;21086;-55
2021/10/15 11:23:46;;;;;;;2.40;1.30;;;;;;;13.27;43.26;100133.23;1764072;79;21150;-55
2021/10/15 11:26:12;;;;;;;3.10;1.20;;;;;;;13.24;43.36;100126.19;1782401;79;21014;-56
2021/10/15 11:28:40;;;;;;;1.80;1.20;;;;;;;13.30;43.45;100120.05;1793906;79;21080;-55
2021/10/15 11:31:13;;;;;;;1.60;0.90;;;;;;;13.30;43.45;100120.05;1780044;79;21068;-55
2021/10/15 11:33:40;;;;;;;1.90;1.30;;;;;;;13.35;43.50;100117.52;1781198;78;21492;-55
2021/10/15 11:36:08;;;;;;;2.00;1.40;;;;;;;13.37;43.05;100116.92;1779182;79;21745;-55
2021/10/15 11:38:35;;;;;;;2.80;2.00;;;;;;;13.40;43.01;100114.55;1782503;79;21726;-55
2021/10/15 11:41:06;;;;;;;2.00;1.77;;;;;;;13.44;43.00;100110.73;1780875;79;21044;-56
2021/10/15 11:43:37;;;;;;;2.67;1.72;;;;;;;13.46;42.98;100109.67;1807106;77;21613;-56
2021/10/15 11:46:08;;;;;;;1.65;1.55;;;;;;;13.50;42.35;100108.56;1782146;78;21317;-53